Faro, Yukon Territory

12:53 PM PDT on September 19, 2019 (GMT -0700)
Faro | | Change Station

Elev 2352 ft 62.23 °N, 133.35 °W | Updated 53 minutes ago

Mostly Cloudy
Mostly Cloudy
52 °F
Feels Like 52 °F
N
10
Wind Variable Wind from WNW

Today
High -- | Low -- °F
--% Chance of Precip.
Yesterday
High -- | Low -- °F
Precip. -- in
Pressure 29.66 in
Visibility 30.0 miles
Clouds Few 3000 ft
Mostly Cloudy 5100 ft
Mostly Cloudy 8200 ft
Dew Point 39 °F
Humidity 62%
Rainfall 0.00 in
Snow Depth Not available.
7:29 AM 8:03 PM
Waning Gibbous, 73% visible
METAR CZFA 191900Z 29009KT 260V360 30SM FEW030 BKN051 BKN082 11/04 A2961 RMK SC1SC5AC2 SC TR SLP044 DENSITY ALT 2800FT
Pressure 29.66 in
Visibility 30.0 miles
Clouds Few 3000 ft
Mostly Cloudy 5100 ft
Mostly Cloudy 8200 ft
Dew Point 39 °F
Humidity 62%
Rainfall 0.00 in
Snow Depth Not available.
7:29 AM 8:03 PM
Waning Gibbous, 73% visible
METAR CZFA 191900Z 29009KT 260V360 30SM FEW030 BKN051 BKN082 11/04 A2961 RMK SC1SC5AC2 SC TR SLP044 DENSITY ALT 2800FT

Get Severe Weather Alerts

Thanks for signing up!

Be on the lookout for a verification email in your inbox.

You'll start receiving the daily forecast at 6 AM.

×

10-Day Weather Forecast

Almanac

Astronomy

Sep. 19, 2019 Rise Set
Actual Time
Civil Twilight
Nautical Twilight
Astronomical Twilight
Moon
Length of Visible Light
Length of Day
Tomorrow will be .
, % of the Moon is Illuminated

Today's Extremes

Country Highs Country Lows

Community

WunderPhotos

Category 6

Welcome to Category 6. This is the collective home for Weather Underground's featured writeups by Dr. Jeff Masters (right), Bob Henson (left), Chris Burt, and other regular contributors.

Nearby

Air Quality

  Air Quality AQ Index Pollutant
Not available.

Snow Depth

Station Depth Elevation

Earthquake Activity

City Distance Mag. Time & Date
Minimum magnitude displayed is 2.5.

Coastal Water Temperatures

Place Temperature

Stations

Nearby Weather Stations

Station Location Temp. Windchill Dew Point Humidity Wind Precip. Elev Updated Type
                   

Watches & Warnings

There are currently no watches in effect.